sensor_id;sensor_type;location;lat;lon;timestamp;temperature;humidity
50606;DHT22;36557;53.572;10.170;2022-09-03T00:04:48;14.70;99.90
50606;DHT22;36557;53.572;10.170;2022-09-03T00:07:34;14.60;99.90
50606;DHT22;36557;53.572;10.170;2022-09-03T00:10:08;14.70;99.90
50606;DHT22;36557;53.572;10.170;2022-09-03T00:12:39;14.50;99.90
50606;DHT22;36557;53.572;10.170;2022-09-03T00:15:10;14.60;99.90
50606;DHT22;36557;53.572;10.170;2022-09-03T00:17:43;14.60;99.90
50606;DHT22;36557;53.572;10.170;2022-09-03T00:20:30;14.40;99.90
50606;DHT22;36557;53.572;10.170;2022-09-03T00:23:00;14.40;99.90
50606;DHT22;36557;53.572;10.170;2022-09-03T00:25:39;14.40;99.90
50606;DHT22;36557;53.572;10.170;2022-09-03T00:28:19;14.40;99.90
50606;DHT22;36557;53.572;10.170;2022-09-03T00:30:51;14.30;99.90
50606;DHT22;36557;53.572;10.170;2022-09-03T00:33:23;14.30;99.90
50606;DHT22;36557;53.572;10.170;2022-09-03T00:38:30;14.30;99.90
50606;DHT22;36557;53.572;10.170;2022-09-03T00:41:28;14.20;99.90
50606;DHT22;36557;53.572;10.170;2022-09-03T00:46:58;14.10;99.90
50606;DHT22;36557;53.572;10.170;2022-09-03T01:03:11;14.00;99.90
50606;DHT22;36557;53.572;10.170;2022-09-03T01:05:30;14.00;99.90
50606;DHT22;36557;53.572;10.170;2022-09-03T01:13:56;14.00;99.90
50606;DHT22;36557;53.572;10.170;2022-09-03T01:16:31;13.90;99.90
50606;DHT22;36557;53.572;10.170;2022-09-03T01:22:13;13.90;99.90
50606;DHT22;36557;53.572;10.170;2022-09-03T01:30:08;13.90;99.90
50606;DHT22;36557;53.572;10.170;2022-09-03T01:35:47;13.80;99.90
50606;DHT22;36557;53.572;10.170;2022-09-03T01:38:54;13.80;99.90
50606;DHT22;36557;53.572;10.170;2022-09-03T01:41:33;13.80;99.90
50606;DHT22;36557;53.572;10.170;2022-09-03T01:47:17;13.60;99.90
50606;DHT22;36557;53.572;10.170;2022-09-03T02:00:24;13.60;99.90
50606;DHT22;36557;53.572;10.170;2022-09-03T02:02:51;13.60;99.90
50606;DHT22;36557;53.572;10.170;2022-09-03T02:05:25;13.50;99.90
50606;DHT22;36557;53.572;10.170;2022-09-03T02:10:26;13.50;99.90
50606;DHT22;36557;53.572;10.170;2022-09-03T02:13:00;13.50;99.90
50606;DHT22;36557;53.572;10.170;2022-09-03T02:15:27;13.60;99.90
50606;DHT22;36557;53.572;10.170;2022-09-03T02:17:55;13.60;99.90
50606;DHT22;36557;53.572;10.170;2022-09-03T02:20:26;13.60;99.90
50606;DHT22;36557;53.572;10.170;2022-09-03T02:22:53;13.70;99.90
50606;DHT22;36557;53.572;10.170;2022-09-03T02:25:22;13.70;99.90
50606;DHT22;36557;53.572;10.170;2022-09-03T02:27:48;13.60;99.90
50606;DHT22;36557;53.572;10.170;2022-09-03T02:30:15;13.60;99.90
50606;DHT22;36557;53.572;10.170;2022-09-03T02:32:43;13.60;99.90
50606;DHT22;36557;53.572;10.170;2022-09-03T02:35:09;13.60;99.90
50606;DHT22;36557;53.572;10.170;2022-09-03T02:37:35;13.60;99.90
50606;DHT22;36557;53.572;10.170;2022-09-03T02:40:01;13.60;99.90
50606;DHT22;36557;53.572;10.170;2022-09-03T02:42:31;13.60;99.90
50606;DHT22;36557;53.572;10.170;2022-09-03T02:45:06;13.50;99.90
50606;DHT22;36557;53.572;10.170;2022-09-03T02:47:35;13.50;99.90
50606;DHT22;36557;53.572;10.170;2022-09-03T02:50:02;13.40;99.90
50606;DHT22;36557;53.572;10.170;2022-09-03T02:52:28;13.40;99.90
50606;DHT22;36557;53.572;10.170;2022-09-03T02:54:53;13.40;99.90
50606;DHT22;36557;53.572;10.170;2022-09-03T02:57:19;13.30;99.90
50606;DHT22;36557;53.572;10.170;2022-09-03T02:59:45;13.30;99.90
50606;DHT22;36557;53.572;10.170;2022-09-03T03:02:12;13.20;99.90
50606;DHT22;36557;53.572;10.170;2022-09-03T03:04:38;13.20;99.90
50606;DHT22;36557;53.572;10.170;2022-09-03T03:07:05;13.10;99.90
50606;DHT22;36557;53.572;10.170;2022-09-03T03:09:31;13.00;99.90
50606;DHT22;36557;53.572;10.170;2022-09-03T03:11:56;13.00;99.90
50606;DHT22;36557;53.572;10.170;2022-09-03T03:14:22;13.00;99.90
50606;DHT22;36557;53.572;10.170;2022-09-03T03:16:49;13.00;99.90
50606;DHT22;36557;53.572;10.170;2022-09-03T03:19:15;13.00;99.90
50606;DHT22;36557;53.572;10.170;2022-09-03T03:21:40;12.90;99.90
50606;DHT22;36557;53.572;10.170;2022-09-03T03:24:06;12.90;99.90
50606;DHT22;36557;53.572;10.170;2022-09-03T03:26:33;12.80;99.90
50606;DHT22;36557;53.572;10.170;2022-09-03T03:29:00;12.70;99.90
50606;DHT22;36557;53.572;10.170;2022-09-03T03:31:26;12.70;99.90
50606;DHT22;36557;53.572;10.170;2022-09-03T03:33:54;12.70;99.90
50606;DHT22;36557;53.572;10.170;2022-09-03T03:36:21;12.70;99.90
50606;DHT22;36557;53.572;10.170;2022-09-03T03:38:47;12.60;99.90
50606;DHT22;36557;53.572;10.170;2022-09-03T03:41:21;12.60;99.90
50606;DHT22;36557;53.572;10.170;2022-09-03T03:43:55;12.60;99.90
50606;DHT22;36557;53.572;10.170;2022-09-03T03:46:23;12.60;99.90
50606;DHT22;36557;53.572;10.170;2022-09-03T03:48:52;12.60;99.90
50606;DHT22;36557;53.572;10.170;2022-09-03T03:51:18;12.60;99.90
50606;DHT22;36557;53.572;10.170;2022-09-03T03:53:44;12.60;99.90
50606;DHT22;36557;53.572;10.170;2022-09-03T03:56:12;12.60;99.90
50606;DHT22;36557;53.572;10.170;2022-09-03T03:58:39;12.50;99.90
50606;DHT22;36557;53.572;10.170;2022-09-03T04:01:15;12.50;99.90
50606;DHT22;36557;53.572;10.170;2022-09-03T04:03:42;12.50;99.90
50606;DHT22;36557;53.572;10.170;2022-09-03T04:06:09;12.50;99.90
50606;DHT22;36557;53.572;10.170;2022-09-03T04:08:40;12.50;99.90
50606;DHT22;36557;53.572;10.170;2022-09-03T04:11:08;12.50;99.90
50606;DHT22;36557;53.572;10.170;2022-09-03T04:13:37;12.40;99.90
50606;DHT22;36557;53.572;10.170;2022-09-03T04:16:11;12.40;99.90
50606;DHT22;36557;53.572;10.170;2022-09-03T04:18:38;12.40;99.90
50606;DHT22;36557;53.572;10.170;2022-09-03T04:21:06;12.40;99.90
50606;DHT22;36557;53.572;10.170;2022-09-03T04:23:34;12.40;99.90
50606;DHT22;36557;53.572;10.170;2022-09-03T04:26:01;12.40;99.90
50606;DHT22;36557;53.572;10.170;2022-09-03T04:28:27;12.40;99.90
50606;DHT22;36557;53.572;10.170;2022-09-03T04:30:53;12.40;99.90
50606;DHT22;36557;53.572;10.170;2022-09-03T04:33:19;12.40;99.90
50606;DHT22;36557;53.572;10.170;2022-09-03T04:35:45;12.50;99.90
50606;DHT22;36557;53.572;10.170;2022-09-03T04:38:10;12.50;99.90
50606;DHT22;36557;53.572;10.170;2022-09-03T04:40:36;12.40;99.90
50606;DHT22;36557;53.572;10.170;2022-09-03T04:43:03;12.40;99.90
50606;DHT22;36557;53.572;10.170;2022-09-03T04:45:29;12.50;99.90
50606;DHT22;36557;53.572;10.170;2022-09-03T04:47:59;12.50;99.90
50606;DHT22;36557;53.572;10.170;2022-09-03T04:50:26;12.50;99.90
50606;DHT22;36557;53.572;10.170;2022-09-03T04:52:58;12.50;99.90
50606;DHT22;36557;53.572;10.170;2022-09-03T04:55:25;12.50;99.90
50606;DHT22;36557;53.572;10.170;2022-09-03T04:57:51;12.50;99.90
50606;DHT22;36557;53.572;10.170;2022-09-03T05:00:17;12.50;99.90
50606;DHT22;36557;53.572;10.170;2022-09-03T05:02:44;12.50;99.90
50606;DHT22;36557;53.572;10.170;2022-09-03T05:05:14;12.50;99.90
50606;DHT22;36557;53.572;10.170;2022-09-03T05:07:39;12.60;99.90
50606;DHT22;36557;53.572;10.170;2022-09-03T05:10:07;12.60;99.90
50606;DHT22;36557;53.572;10.170;2022-09-03T05:12:33;12.60;99.90
50606;DHT22;36557;53.572;10.170;2022-09-03T05:14:59;12.60;99.90
50606;DHT22;36557;53.572;10.170;2022-09-03T05:17:26;12.60;99.90
50606;DHT22;36557;53.572;10.170;2022-09-03T05:19:52;12.70;99.90
50606;DHT22;36557;53.572;10.170;2022-09-03T05:22:18;12.70;99.90
50606;DHT22;36557;53.572;10.170;2022-09-03T05:24:47;12.80;99.90
50606;DHT22;36557;53.572;10.170;2022-09-03T05:27:14;12.90;99.90
50606;DHT22;36557;53.572;10.170;2022-09-03T05:29:44;12.90;99.90
50606;DHT22;36557;53.572;10.170;2022-09-03T05:32:11;13.00;99.90
50606;DHT22;36557;53.572;10.170;2022-09-03T05:34:37;13.00;99.90
50606;DHT22;36557;53.572;10.170;2022-09-03T05:37:03;13.10;99.90
50606;DHT22;36557;53.572;10.170;2022-09-03T05:39:29;13.20;99.90
50606;DHT22;36557;53.572;10.170;2022-09-03T05:41:55;13.20;99.90
50606;DHT22;36557;53.572;10.170;2022-09-03T05:44:21;13.20;99.90
50606;DHT22;36557;53.572;10.170;2022-09-03T05:46:48;13.30;99.90
50606;DHT22;36557;53.572;10.170;2022-09-03T05:49:14;13.40;99.90
50606;DHT22;36557;53.572;10.170;2022-09-03T05:51:40;13.50;99.90
50606;DHT22;36557;53.572;10.170;2022-09-03T05:54:07;13.60;99.90
50606;DHT22;36557;53.572;10.170;2022-09-03T05:56:33;13.70;99.90
50606;DHT22;36557;53.572;10.170;2022-09-03T05:59:02;13.80;99.90
50606;DHT22;36557;53.572;10.170;2022-09-03T06:01:32;13.90;99.90
50606;DHT22;36557;53.572;10.170;2022-09-03T06:04:06;14.00;99.90
50606;DHT22;36557;53.572;10.170;2022-09-03T06:06:34;14.20;99.90
50606;DHT22;36557;53.572;10.170;2022-09-03T06:09:03;14.30;99.90
50606;DHT22;36557;53.572;10.170;2022-09-03T06:11:31;14.30;99.90
50606;DHT22;36557;53.572;10.170;2022-09-03T06:13:58;14.50;99.90
50606;DHT22;36557;53.572;10.170;2022-09-03T06:16:28;14.50;99.90
50606;DHT22;36557;53.572;10.170;2022-09-03T06:18:54;14.60;99.90
50606;DHT22;36557;53.572;10.170;2022-09-03T06:21:21;14.80;99.90
50606;DHT22;36557;53.572;10.170;2022-09-03T06:23:51;14.90;99.90
50606;DHT22;36557;53.572;10.170;2022-09-03T06:26:18;15.00;99.90
50606;DHT22;36557;53.572;10.170;2022-09-03T06:28:45;15.20;99.90
50606;DHT22;36557;53.572;10.170;2022-09-03T06:31:13;15.20;99.90
50606;DHT22;36557;53.572;10.170;2022-09-03T06:33:40;15.30;99.90
50606;DHT22;36557;53.572;10.170;2022-09-03T06:36:15;15.50;99.90
50606;DHT22;36557;53.572;10.170;2022-09-03T06:38:42;15.50;99.90
50606;DHT22;36557;53.572;10.170;2022-09-03T06:41:12;15.60;99.90
50606;DHT22;36557;53.572;10.170;2022-09-03T06:43:40;15.80;99.90
50606;DHT22;36557;53.572;10.170;2022-09-03T06:46:15;16.00;99.90
50606;DHT22;36557;53.572;10.170;2022-09-03T06:48:41;16.00;99.90
50606;DHT22;36557;53.572;10.170;2022-09-03T06:51:09;15.90;99.90
50606;DHT22;36557;53.572;10.170;2022-09-03T06:53:37;16.00;99.90
50606;DHT22;36557;53.572;10.170;2022-09-03T06:56:09;16.00;99.80
50606;DHT22;36557;53.572;10.170;2022-09-03T06:58:38;16.40;99.30
50606;DHT22;36557;53.572;10.170;2022-09-03T07:01:10;16.50;99.50
50606;DHT22;36557;53.572;10.170;2022-09-03T07:03:37;16.60;99.20
50606;DHT22;36557;53.572;10.170;2022-09-03T07:06:08;16.60;99.50
50606;DHT22;36557;53.572;10.170;2022-09-03T07:08:35;16.60;99.10
50606;DHT22;36557;53.572;10.170;2022-09-03T07:11:02;16.80;98.90
50606;DHT22;36557;53.572;10.170;2022-09-03T07:13:30;16.60;99.20
50606;DHT22;36557;53.572;10.170;2022-09-03T07:16:02;17.00;98.40
50606;DHT22;36557;53.572;10.170;2022-09-03T07:18:29;17.10;98.10
50606;DHT22;36557;53.572;10.170;2022-09-03T07:21:05;17.30;98.00
50606;DHT22;36557;53.572;10.170;2022-09-03T07:23:31;17.30;98.20
50606;DHT22;36557;53.572;10.170;2022-09-03T07:25:59;17.60;98.00
50606;DHT22;36557;53.572;10.170;2022-09-03T07:28:26;17.70;97.80
50606;DHT22;36557;53.572;10.170;2022-09-03T07:30:54;17.90;97.40
50606;DHT22;36557;53.572;10.170;2022-09-03T07:33:20;17.90;97.20
50606;DHT22;36557;53.572;10.170;2022-09-03T07:35:46;17.80;97.40
50606;DHT22;36557;53.572;10.170;2022-09-03T07:38:19;18.00;97.10
50606;DHT22;36557;53.572;10.170;2022-09-03T07:43:12;17.80;97.10
50606;DHT22;36557;53.572;10.170;2022-09-03T07:45:38;18.30;97.00
50606;DHT22;36557;53.572;10.170;2022-09-03T07:48:04;18.40;97.10
50606;DHT22;36557;53.572;10.170;2022-09-03T07:50:30;18.90;96.40
50606;DHT22;36557;53.572;10.170;2022-09-03T07:53:02;19.00;96.30
50606;DHT22;36557;53.572;10.170;2022-09-03T07:55:28;19.60;95.60
50606;DHT22;36557;53.572;10.170;2022-09-03T07:57:56;19.50;94.90
50606;DHT22;36557;53.572;10.170;2022-09-03T08:00:24;19.80;95.40
50606;DHT22;36557;53.572;10.170;2022-09-03T08:02:53;19.00;95.10
50606;DHT22;36557;53.572;10.170;2022-09-03T08:05:20;19.30;95.00
50606;DHT22;36557;53.572;10.170;2022-09-03T08:07:47;19.40;95.00
50606;DHT22;36557;53.572;10.170;2022-09-03T08:10:14;19.60;94.70
50606;DHT22;36557;53.572;10.170;2022-09-03T08:12:41;19.60;95.30
50606;DHT22;36557;53.572;10.170;2022-09-03T08:15:07;20.00;94.50
50606;DHT22;36557;53.572;10.170;2022-09-03T08:17:33;20.50;94.10
50606;DHT22;36557;53.572;10.170;2022-09-03T08:19:59;19.90;94.20
50606;DHT22;36557;53.572;10.170;2022-09-03T08:24:52;20.20;93.80
50606;DHT22;36557;53.572;10.170;2022-09-03T08:27:18;20.30;94.40
50606;DHT22;36557;53.572;10.170;2022-09-03T08:29:48;20.30;92.80
50606;DHT22;36557;53.572;10.170;2022-09-03T08:32:14;20.80;92.40
50606;DHT22;36557;53.572;10.170;2022-09-03T08:34:39;20.80;93.00
50606;DHT22;36557;53.572;10.170;2022-09-03T08:37:05;21.40;92.50
50606;DHT22;36557;53.572;10.170;2022-09-03T08:39:34;21.30;91.70
50606;DHT22;36557;53.572;10.170;2022-09-03T08:45:00;21.50;90.80
50606;DHT22;36557;53.572;10.170;2022-09-03T08:47:32;21.60;90.90
50606;DHT22;36557;53.572;10.170;2022-09-03T09:00:21;21.80;89.60
50606;DHT22;36557;53.572;10.170;2022-09-03T09:03:04;21.60;88.40
50606;DHT22;36557;53.572;10.170;2022-09-03T09:05:49;21.10;90.10
50606;DHT22;36557;53.572;10.170;2022-09-03T09:11:23;21.30;90.20
50606;DHT22;36557;53.572;10.170;2022-09-03T09:14:06;21.50;89.20
50606;DHT22;36557;53.572;10.170;2022-09-03T09:16:44;21.90;90.10
50606;DHT22;36557;53.572;10.170;2022-09-03T09:21:57;22.20;88.30
50606;DHT22;36557;53.572;10.170;2022-09-03T09:24:25;22.70;87.90
50606;DHT22;36557;53.572;10.170;2022-09-03T09:26:59;22.70;88.60
50606;DHT22;36557;53.572;10.170;2022-09-03T09:29:27;23.10;86.90
50606;DHT22;36557;53.572;10.170;2022-09-03T09:31:56;23.30;85.30
50606;DHT22;36557;53.572;10.170;2022-09-03T09:34:22;23.00;84.60
50606;DHT22;36557;53.572;10.170;2022-09-03T09:36:50;23.20;86.40
50606;DHT22;36557;53.572;10.170;2022-09-03T09:39:16;23.30;84.60
50606;DHT22;36557;53.572;10.170;2022-09-03T09:41:43;22.90;85.30
50606;DHT22;36557;53.572;10.170;2022-09-03T09:44:19;23.00;85.70
50606;DHT22;36557;53.572;10.170;2022-09-03T09:46:46;23.20;84.40
50606;DHT22;36557;53.572;10.170;2022-09-03T09:49:50;23.50;82.80
50606;DHT22;36557;53.572;10.170;2022-09-03T09:52:16;23.60;83.20
50606;DHT22;36557;53.572;10.170;2022-09-03T09:54:44;23.00;81.10
50606;DHT22;36557;53.572;10.170;2022-09-03T09:57:25;23.20;80.70
50606;DHT22;36557;53.572;10.170;2022-09-03T10:00:08;23.50;79.60
50606;DHT22;36557;53.572;10.170;2022-09-03T10:02:48;23.50;80.10
50606;DHT22;36557;53.572;10.170;2022-09-03T10:05:26;24.00;77.80
50606;DHT22;36557;53.572;10.170;2022-09-03T10:08:02;24.30;78.50
50606;DHT22;36557;53.572;10.170;2022-09-03T10:10:31;24.40;75.20
50606;DHT22;36557;53.572;10.170;2022-09-03T10:13:08;24.50;75.60
50606;DHT22;36557;53.572;10.170;2022-09-03T10:16:01;24.80;75.30
50606;DHT22;36557;53.572;10.170;2022-09-03T10:18:46;25.20;74.00
50606;DHT22;36557;53.572;10.170;2022-09-03T10:26:23;24.90;72.40
50606;DHT22;36557;53.572;10.170;2022-09-03T10:29:00;25.30;72.20
50606;DHT22;36557;53.572;10.170;2022-09-03T10:34:13;24.60;70.00
50606;DHT22;36557;53.572;10.170;2022-09-03T10:39:31;24.00;72.40
50606;DHT22;36557;53.572;10.170;2022-09-03T10:50:31;25.40;69.10
50606;DHT22;36557;53.572;10.170;2022-09-03T11:04:19;24.80;67.60
50606;DHT22;36557;53.572;10.170;2022-09-03T11:07:02;24.80;67.70
50606;DHT22;36557;53.572;10.170;2022-09-03T11:09:39;25.50;65.00
50606;DHT22;36557;53.572;10.170;2022-09-03T11:12:19;25.10;66.00
50606;DHT22;36557;53.572;10.170;2022-09-03T11:15:02;24.80;65.40
50606;DHT22;36557;53.572;10.170;2022-09-03T11:17:41;24.80;67.20
50606;DHT22;36557;53.572;10.170;2022-09-03T11:20:22;25.10;66.00
50606;DHT22;36557;53.572;10.170;2022-09-03T11:22:50;25.50;64.60
50606;DHT22;36557;53.572;10.170;2022-09-03T11:25:20;25.30;64.00
50606;DHT22;36557;53.572;10.170;2022-09-03T11:34:04;25.00;63.50
50606;DHT22;36557;53.572;10.170;2022-09-03T11:36:33;24.40;63.00
50606;DHT22;36557;53.572;10.170;2022-09-03T11:39:00;24.70;64.70
50606;DHT22;36557;53.572;10.170;2022-09-03T11:41:37;26.00;65.00
50606;DHT22;36557;53.572;10.170;2022-09-03T11:44:19;26.60;62.90
50606;DHT22;36557;53.572;10.170;2022-09-03T11:46:56;26.10;64.30
50606;DHT22;36557;53.572;10.170;2022-09-03T11:49:28;25.70;62.00
50606;DHT22;36557;53.572;10.170;2022-09-03T11:52:00;25.00;60.40
50606;DHT22;36557;53.572;10.170;2022-09-03T11:54:27;24.70;60.00
50606;DHT22;36557;53.572;10.170;2022-09-03T11:57:13;25.00;61.10
50606;DHT22;36557;53.572;10.170;2022-09-03T11:59:41;25.40;61.40
50606;DHT22;36557;53.572;10.170;2022-09-03T12:02:28;24.60;60.80
50606;DHT22;36557;53.572;10.170;2022-09-03T12:18:32;24.90;62.30
50606;DHT22;36557;53.572;10.170;2022-09-03T12:21:00;24.90;62.20
50606;DHT22;36557;53.572;10.170;2022-09-03T12:26:06;26.00;62.40
50606;DHT22;36557;53.572;10.170;2022-09-03T12:28:39;25.00;60.70
50606;DHT22;36557;53.572;10.170;2022-09-03T12:31:24;25.30;62.40
50606;DHT22;36557;53.572;10.170;2022-09-03T12:33:55;24.90;61.50
50606;DHT22;36557;53.572;10.170;2022-09-03T12:36:24;24.10;62.00
50606;DHT22;36557;53.572;10.170;2022-09-03T12:38:51;24.00;63.60
50606;DHT22;36557;53.572;10.170;2022-09-03T12:41:28;24.60;62.00
50606;DHT22;36557;53.572;10.170;2022-09-03T12:43:59;25.20;61.60
50606;DHT22;36557;53.572;10.170;2022-09-03T12:46:27;25.30;61.10
50606;DHT22;36557;53.572;10.170;2022-09-03T12:49:01;25.00;61.00
50606;DHT22;36557;53.572;10.170;2022-09-03T12:51:39;25.30;61.40
50606;DHT22;36557;53.572;10.170;2022-09-03T12:54:08;25.80;60.50
50606;DHT22;36557;53.572;10.170;2022-09-03T12:56:39;26.40;61.10
50606;DHT22;36557;53.572;10.170;2022-09-03T12:59:11;26.60;81.20
50606;DHT22;36557;53.572;10.170;2022-09-03T13:01:45;25.70;59.00
50606;DHT22;36557;53.572;10.170;2022-09-03T13:04:16;25.00;60.00
50606;DHT22;36557;53.572;10.170;2022-09-03T13:06:52;24.90;60.50
50606;DHT22;36557;53.572;10.170;2022-09-03T13:09:22;24.90;60.90
50606;DHT22;36557;53.572;10.170;2022-09-03T13:11:51;24.20;60.50
50606;DHT22;36557;53.572;10.170;2022-09-03T13:14:20;24.50;60.10
50606;DHT22;36557;53.572;10.170;2022-09-03T13:16:49;25.00;60.30
50606;DHT22;36557;53.572;10.170;2022-09-03T13:33:01;23.40;60.20
50606;DHT22;36557;53.572;10.170;2022-09-03T13:35:37;23.40;61.30
50606;DHT22;36557;53.572;10.170;2022-09-03T13:38:07;23.00;61.30
50606;DHT22;36557;53.572;10.170;2022-09-03T13:40:35;22.90;61.10
50606;DHT22;36557;53.572;10.170;2022-09-03T13:45:44;22.80;60.90
50606;DHT22;36557;53.572;10.170;2022-09-03T13:48:21;23.30;61.70
50606;DHT22;36557;53.572;10.170;2022-09-03T13:56:43;23.30;62.70
50606;DHT22;36557;53.572;10.170;2022-09-03T13:59:17;23.40;61.60
50606;DHT22;36557;53.572;10.170;2022-09-03T14:02:09;23.50;62.20
50606;DHT22;36557;53.572;10.170;2022-09-03T14:05:03;23.70;60.50
50606;DHT22;36557;53.572;10.170;2022-09-03T14:24:19;24.00;60.70
50606;DHT22;36557;53.572;10.170;2022-09-03T14:27:00;24.10;61.20
50606;DHT22;36557;53.572;10.170;2022-09-03T14:29:32;24.40;60.30
50606;DHT22;36557;53.572;10.170;2022-09-03T14:43:07;24.20;58.90
50606;DHT22;36557;53.572;10.170;2022-09-03T14:48:38;24.10;59.40
50606;DHT22;36557;53.572;10.170;2022-09-03T15:02:31;23.40;60.50
50606;DHT22;36557;53.572;10.170;2022-09-03T15:07:59;23.80;60.40
50606;DHT22;36557;53.572;10.170;2022-09-03T15:10:41;23.60;59.80
50606;DHT22;36557;53.572;10.170;2022-09-03T15:15:58;23.30;59.80
50606;DHT22;36557;53.572;10.170;2022-09-03T15:21:28;23.10;60.60
50606;DHT22;36557;53.572;10.170;2022-09-03T15:26:52;23.40;60.00
50606;DHT22;36557;53.572;10.170;2022-09-03T15:32:19;23.50;60.30
50606;DHT22;36557;53.572;10.170;2022-09-03T15:35:03;23.40;60.90
50606;DHT22;36557;53.572;10.170;2022-09-03T15:37:53;23.60;60.00
50606;DHT22;36557;53.572;10.170;2022-09-03T15:40:47;23.30;59.80
50606;DHT22;36557;53.572;10.170;2022-09-03T15:43:24;23.00;59.70
50606;DHT22;36557;53.572;10.170;2022-09-03T15:45:54;23.10;61.20
50606;DHT22;36557;53.572;10.170;2022-09-03T15:51:27;22.80;61.40
50606;DHT22;36557;53.572;10.170;2022-09-03T15:54:17;22.90;61.60
50606;DHT22;36557;53.572;10.170;2022-09-03T15:57:07;22.90;61.50
50606;DHT22;36557;53.572;10.170;2022-09-03T15:59:51;22.50;61.90
50606;DHT22;36557;53.572;10.170;2022-09-03T16:02:29;22.30;62.30
50606;DHT22;36557;53.572;10.170;2022-09-03T16:12:41;21.90;64.30
50606;DHT22;36557;53.572;10.170;2022-09-03T16:15:16;21.90;63.70
50606;DHT22;36557;53.572;10.170;2022-09-03T16:20:20;21.90;63.00
50606;DHT22;36557;53.572;10.170;2022-09-03T16:23:26;21.80;62.80
50606;DHT22;36557;53.572;10.170;2022-09-03T16:26:12;21.80;62.80
50606;DHT22;36557;53.572;10.170;2022-09-03T16:28:52;21.70;63.10
50606;DHT22;36557;53.572;10.170;2022-09-03T16:31:37;21.90;63.00
50606;DHT22;36557;53.572;10.170;2022-09-03T16:34:16;21.60;63.50
50606;DHT22;36557;53.572;10.170;2022-09-03T16:39:51;21.60;63.00
50606;DHT22;36557;53.572;10.170;2022-09-03T16:45:03;21.50;63.80
50606;DHT22;36557;53.572;10.170;2022-09-03T16:47:51;21.30;63.40
50606;DHT22;36557;53.572;10.170;2022-09-03T17:01:21;21.00;65.00
50606;DHT22;36557;53.572;10.170;2022-09-03T17:09:50;20.80;65.70
50606;DHT22;36557;53.572;10.170;2022-09-03T17:21:08;20.50;66.70
50606;DHT22;36557;53.572;10.170;2022-09-03T17:31:47;20.20;67.60
50606;DHT22;36557;53.572;10.170;2022-09-03T17:34:25;20.10;67.90
50606;DHT22;36557;53.572;10.170;2022-09-03T17:39:47;19.90;67.70
50606;DHT22;36557;53.572;10.170;2022-09-03T17:45:14;19.70;68.30
50606;DHT22;36557;53.572;10.170;2022-09-03T17:48:10;19.70;68.00
50606;DHT22;36557;53.572;10.170;2022-09-03T17:50:53;19.70;68.00
50606;DHT22;36557;53.572;10.170;2022-09-03T17:53:32;19.50;68.90
50606;DHT22;36557;53.572;10.170;2022-09-03T17:56:28;19.50;69.00
50606;DHT22;36557;53.572;10.170;2022-09-03T17:59:16;19.30;68.70
50606;DHT22;36557;53.572;10.170;2022-09-03T18:02:05;19.20;69.20
50606;DHT22;36557;53.572;10.170;2022-09-03T18:04:55;19.20;69.40
50606;DHT22;36557;53.572;10.170;2022-09-03T18:07:49;19.10;69.40
50606;DHT22;36557;53.572;10.170;2022-09-03T18:10:38;18.90;70.10
50606;DHT22;36557;53.572;10.170;2022-09-03T18:13:38;18.80;70.60
50606;DHT22;36557;53.572;10.170;2022-09-03T18:16:18;18.80;70.60
50606;DHT22;36557;53.572;10.170;2022-09-03T18:18:56;18.70;71.10
50606;DHT22;36557;53.572;10.170;2022-09-03T18:21:24;18.60;71.60
50606;DHT22;36557;53.572;10.170;2022-09-03T18:27:11;18.40;72.10
50606;DHT22;36557;53.572;10.170;2022-09-03T18:30:05;18.30;72.40
50606;DHT22;36557;53.572;10.170;2022-09-03T18:32:50;18.20;72.90
50606;DHT22;36557;53.572;10.170;2022-09-03T18:35:35;18.10;73.30
50606;DHT22;36557;53.572;10.170;2022-09-03T18:38:26;18.00;73.50
50606;DHT22;36557;53.572;10.170;2022-09-03T18:53:34;17.60;74.70
50606;DHT22;36557;53.572;10.170;2022-09-03T18:56:40;17.50;75.00
50606;DHT22;36557;53.572;10.170;2022-09-03T18:59:56;17.50;75.20
50606;DHT22;36557;53.572;10.170;2022-09-03T19:21:37;17.10;77.00
50606;DHT22;36557;53.572;10.170;2022-09-03T19:24:27;17.10;77.30
50606;DHT22;36557;53.572;10.170;2022-09-03T19:27:33;17.00;77.00
50606;DHT22;36557;53.572;10.170;2022-09-03T19:37:03;16.90;78.60
50606;DHT22;36557;53.572;10.170;2022-09-03T19:40:29;16.90;78.50
50606;DHT22;36557;53.572;10.170;2022-09-03T19:46:48;16.90;78.40
50606;DHT22;36557;53.572;10.170;2022-09-03T19:53:04;16.80;78.70
50606;DHT22;36557;53.572;10.170;2022-09-03T19:55:55;16.70;79.30
50606;DHT22;36557;53.572;10.170;2022-09-03T19:58:54;16.70;79.70
50606;DHT22;36557;53.572;10.170;2022-09-03T20:01:39;16.60;80.00
50606;DHT22;36557;53.572;10.170;2022-09-03T20:04:35;16.70;80.00
50606;DHT22;36557;53.572;10.170;2022-09-03T20:07:20;16.60;80.30
50606;DHT22;36557;53.572;10.170;2022-09-03T20:10:09;16.50;80.50
50606;DHT22;36557;53.572;10.170;2022-09-03T20:13:11;16.50;80.80
50606;DHT22;36557;53.572;10.170;2022-09-03T20:16:07;16.40;81.20
50606;DHT22;36557;53.572;10.170;2022-09-03T20:19:03;16.40;81.30
50606;DHT22;36557;53.572;10.170;2022-09-03T20:21:41;16.30;81.80
50606;DHT22;36557;53.572;10.170;2022-09-03T20:30:05;16.30;82.50
50606;DHT22;36557;53.572;10.170;2022-09-03T20:32:43;16.30;83.40
50606;DHT22;36557;53.572;10.170;2022-09-03T20:38:09;16.20;83.40
50606;DHT22;36557;53.572;10.170;2022-09-03T20:40:53;16.10;84.00
50606;DHT22;36557;53.572;10.170;2022-09-03T20:43:37;16.10;84.10
50606;DHT22;36557;53.572;10.170;2022-09-03T20:46:28;16.10;84.40
50606;DHT22;36557;53.572;10.170;2022-09-03T20:54:36;16.10;86.70
50606;DHT22;36557;53.572;10.170;2022-09-03T20:57:15;16.10;87.30
50606;DHT22;36557;53.572;10.170;2022-09-03T21:05:18;16.10;90.20
50606;DHT22;36557;53.572;10.170;2022-09-03T21:10:53;16.00;91.00
50606;DHT22;36557;53.572;10.170;2022-09-03T21:19:32;15.90;93.50
50606;DHT22;36557;53.572;10.170;2022-09-03T21:22:29;15.90;94.10
50606;DHT22;36557;53.572;10.170;2022-09-03T21:25:01;15.90;95.10
50606;DHT22;36557;53.572;10.170;2022-09-03T21:27:38;15.80;94.90
50606;DHT22;36557;53.572;10.170;2022-09-03T21:30:13;15.80;95.90
50606;DHT22;36557;53.572;10.170;2022-09-03T21:32:46;15.80;97.10
50606;DHT22;36557;53.572;10.170;2022-09-03T21:35:33;15.70;98.00
50606;DHT22;36557;53.572;10.170;2022-09-03T21:38:08;15.70;98.50
50606;DHT22;36557;53.572;10.170;2022-09-03T21:41:10;15.60;99.00
50606;DHT22;36557;53.572;10.170;2022-09-03T21:43:42;15.60;98.90